sensor_id;sensor_type;location;lat;lon;timestamp;temperature;humidity
75927;DHT22;64605;48.296;16.416;2023-02-28T00:01:30;4.70;49.10
75927;DHT22;64605;48.296;16.416;2023-02-28T00:03:56;4.60;49.10
75927;DHT22;64605;48.296;16.416;2023-02-28T00:06:22;4.60;49.30
75927;DHT22;64605;48.296;16.416;2023-02-28T00:08:48;4.60;49.50
75927;DHT22;64605;48.296;16.416;2023-02-28T00:11:14;4.50;49.70
75927;DHT22;64605;48.296;16.416;2023-02-28T00:13:43;4.50;49.90
75927;DHT22;64605;48.296;16.416;2023-02-28T00:16:21;4.50;50.00
75927;DHT22;64605;48.296;16.416;2023-02-28T00:18:48;4.50;50.10
75927;DHT22;64605;48.296;16.416;2023-02-28T00:21:14;4.40;50.20
75927;DHT22;64605;48.296;16.416;2023-02-28T00:23:40;4.40;50.40
75927;DHT22;64605;48.296;16.416;2023-02-28T00:26:06;4.40;50.60
75927;DHT22;64605;48.296;16.416;2023-02-28T00:28:32;4.50;50.70
75927;DHT22;64605;48.296;16.416;2023-02-28T00:30:58;4.50;50.70
75927;DHT22;64605;48.296;16.416;2023-02-28T00:33:25;4.50;50.20
75927;DHT22;64605;48.296;16.416;2023-02-28T00:35:51;4.50;50.10
75927;DHT22;64605;48.296;16.416;2023-02-28T00:38:16;4.50;50.10
75927;DHT22;64605;48.296;16.416;2023-02-28T00:40:43;4.50;50.10
75927;DHT22;64605;48.296;16.416;2023-02-28T00:43:08;4.50;50.10
75927;DHT22;64605;48.296;16.416;2023-02-28T00:45:34;4.60;50.30
75927;DHT22;64605;48.296;16.416;2023-02-28T00:47:59;4.60;50.20
75927;DHT22;64605;48.296;16.416;2023-02-28T00:50:25;4.60;50.20
75927;DHT22;64605;48.296;16.416;2023-02-28T00:52:51;4.60;50.20
75927;DHT22;64605;48.296;16.416;2023-02-28T00:55:16;4.60;50.20
75927;DHT22;64605;48.296;16.416;2023-02-28T00:57:42;4.70;50.20
75927;DHT22;64605;48.296;16.416;2023-02-28T01:00:08;4.70;50.20
75927;DHT22;64605;48.296;16.416;2023-02-28T01:02:34;4.80;50.30
75927;DHT22;64605;48.296;16.416;2023-02-28T01:05:00;4.80;49.70
75927;DHT22;64605;48.296;16.416;2023-02-28T01:07:25;4.80;49.70
75927;DHT22;64605;48.296;16.416;2023-02-28T01:09:51;4.90;50.00
75927;DHT22;64605;48.296;16.416;2023-02-28T01:12:17;4.90;49.60
75927;DHT22;64605;48.296;16.416;2023-02-28T01:14:42;4.90;49.90
75927;DHT22;64605;48.296;16.416;2023-02-28T01:17:08;4.90;49.40
75927;DHT22;64605;48.296;16.416;2023-02-28T01:19:34;4.90;49.10
75927;DHT22;64605;48.296;16.416;2023-02-28T01:22:05;5.00;49.10
75927;DHT22;64605;48.296;16.416;2023-02-28T01:24:31;5.00;49.00
75927;DHT22;64605;48.296;16.416;2023-02-28T01:26:57;5.00;48.70
75927;DHT22;64605;48.296;16.416;2023-02-28T01:29:23;5.00;48.70
75927;DHT22;64605;48.296;16.416;2023-02-28T01:31:48;5.00;48.70
75927;DHT22;64605;48.296;16.416;2023-02-28T01:34:14;5.00;48.80
75927;DHT22;64605;48.296;16.416;2023-02-28T01:36:39;5.00;48.90
75927;DHT22;64605;48.296;16.416;2023-02-28T01:39:05;5.00;48.70
75927;DHT22;64605;48.296;16.416;2023-02-28T01:41:33;5.00;48.70
75927;DHT22;64605;48.296;16.416;2023-02-28T01:46:51;5.00;48.80
75927;DHT22;64605;48.296;16.416;2023-02-28T01:49:18;5.10;48.90
75927;DHT22;64605;48.296;16.416;2023-02-28T01:51:49;5.10;48.40
75927;DHT22;64605;48.296;16.416;2023-02-28T01:54:28;5.10;49.40
75927;DHT22;64605;48.296;16.416;2023-02-28T01:57:07;5.10;48.30
75927;DHT22;64605;48.296;16.416;2023-02-28T01:59:59;5.10;48.50
75927;DHT22;64605;48.296;16.416;2023-02-28T02:02:27;5.10;47.80
75927;DHT22;64605;48.296;16.416;2023-02-28T02:05:07;5.00;48.00
75927;DHT22;64605;48.296;16.416;2023-02-28T02:07:35;5.00;48.20
75927;DHT22;64605;48.296;16.416;2023-02-28T02:10:09;5.00;48.30
75927;DHT22;64605;48.296;16.416;2023-02-28T02:15:38;5.00;47.80
75927;DHT22;64605;48.296;16.416;2023-02-28T02:18:49;5.00;47.90
75927;DHT22;64605;48.296;16.416;2023-02-28T02:29:15;5.00;48.40
75927;DHT22;64605;48.296;16.416;2023-02-28T02:32:08;4.90;48.50
75927;DHT22;64605;48.296;16.416;2023-02-28T02:40:16;5.00;48.70
75927;DHT22;64605;48.296;16.416;2023-02-28T02:43:07;4.90;48.40
75927;DHT22;64605;48.296;16.416;2023-02-28T02:45:38;4.90;48.70
75927;DHT22;64605;48.296;16.416;2023-02-28T02:48:09;4.90;49.10
75927;DHT22;64605;48.296;16.416;2023-02-28T02:50:42;4.90;49.10
75927;DHT22;64605;48.296;16.416;2023-02-28T02:53:10;4.90;48.90
75927;DHT22;64605;48.296;16.416;2023-02-28T02:55:40;4.90;49.40
75927;DHT22;64605;48.296;16.416;2023-02-28T02:58:11;4.80;49.30
75927;DHT22;64605;48.296;16.416;2023-02-28T03:00:43;4.80;49.70
75927;DHT22;64605;48.296;16.416;2023-02-28T03:03:12;4.80;50.10
75927;DHT22;64605;48.296;16.416;2023-02-28T03:05:49;4.80;49.90
75927;DHT22;64605;48.296;16.416;2023-02-28T03:08:16;4.80;49.50
75927;DHT22;64605;48.296;16.416;2023-02-28T03:10:43;4.70;49.70
75927;DHT22;64605;48.296;16.416;2023-02-28T03:16:12;4.50;50.10
75927;DHT22;64605;48.296;16.416;2023-02-28T03:21:38;4.60;50.60
75927;DHT22;64605;48.296;16.416;2023-02-28T03:24:12;4.50;50.60
75927;DHT22;64605;48.296;16.416;2023-02-28T03:26:46;4.60;50.80
75927;DHT22;64605;48.296;16.416;2023-02-28T03:29:18;4.60;50.60
75927;DHT22;64605;48.296;16.416;2023-02-28T03:31:52;4.60;50.50
75927;DHT22;64605;48.296;16.416;2023-02-28T03:34:29;4.60;50.20
75927;DHT22;64605;48.296;16.416;2023-02-28T03:37:05;4.60;50.30
75927;DHT22;64605;48.296;16.416;2023-02-28T03:39:42;4.60;50.40
75927;DHT22;64605;48.296;16.416;2023-02-28T03:42:17;4.50;50.60
75927;DHT22;64605;48.296;16.416;2023-02-28T03:44:57;4.40;51.10
75927;DHT22;64605;48.296;16.416;2023-02-28T03:50:18;4.20;51.50
75927;DHT22;64605;48.296;16.416;2023-02-28T03:52:52;4.20;51.70
75927;DHT22;64605;48.296;16.416;2023-02-28T03:55:25;4.10;52.10
75927;DHT22;64605;48.296;16.416;2023-02-28T04:00:54;3.90;52.40
75927;DHT22;64605;48.296;16.416;2023-02-28T04:03:21;3.90;52.50
75927;DHT22;64605;48.296;16.416;2023-02-28T04:05:52;3.90;52.80
75927;DHT22;64605;48.296;16.416;2023-02-28T04:08:18;3.80;52.90
75927;DHT22;64605;48.296;16.416;2023-02-28T04:10:48;3.80;53.20
75927;DHT22;64605;48.296;16.416;2023-02-28T04:13:16;3.70;53.40
75927;DHT22;64605;48.296;16.416;2023-02-28T04:15:41;3.70;53.50
75927;DHT22;64605;48.296;16.416;2023-02-28T04:18:07;3.70;53.60
75927;DHT22;64605;48.296;16.416;2023-02-28T04:20:33;3.60;53.70
75927;DHT22;64605;48.296;16.416;2023-02-28T04:22:59;3.60;53.70
75927;DHT22;64605;48.296;16.416;2023-02-28T04:25:24;3.50;53.90
75927;DHT22;64605;48.296;16.416;2023-02-28T04:27:50;3.50;53.90
75927;DHT22;64605;48.296;16.416;2023-02-28T04:30:16;3.50;54.20
75927;DHT22;64605;48.296;16.416;2023-02-28T04:32:41;3.50;54.30
75927;DHT22;64605;48.296;16.416;2023-02-28T04:35:07;3.50;54.50
75927;DHT22;64605;48.296;16.416;2023-02-28T04:37:33;3.50;54.30
75927;DHT22;64605;48.296;16.416;2023-02-28T04:40:00;3.60;54.30
75927;DHT22;64605;48.296;16.416;2023-02-28T04:42:26;3.60;53.80
75927;DHT22;64605;48.296;16.416;2023-02-28T04:44:52;3.60;54.00
75927;DHT22;64605;48.296;16.416;2023-02-28T04:47:17;3.70;54.30
75927;DHT22;64605;48.296;16.416;2023-02-28T04:49:43;3.80;54.20
75927;DHT22;64605;48.296;16.416;2023-02-28T04:52:09;3.90;54.20
75927;DHT22;64605;48.296;16.416;2023-02-28T04:54:35;4.00;53.90
75927;DHT22;64605;48.296;16.416;2023-02-28T04:57:01;4.10;53.90
75927;DHT22;64605;48.296;16.416;2023-02-28T04:59:27;4.10;53.40
75927;DHT22;64605;48.296;16.416;2023-02-28T05:01:52;4.10;53.10
75927;DHT22;64605;48.296;16.416;2023-02-28T05:04:18;4.10;53.20
75927;DHT22;64605;48.296;16.416;2023-02-28T05:06:44;4.10;53.10
75927;DHT22;64605;48.296;16.416;2023-02-28T05:09:10;4.00;53.10
75927;DHT22;64605;48.296;16.416;2023-02-28T05:11:39;4.00;53.30
75927;DHT22;64605;48.296;16.416;2023-02-28T05:14:10;3.90;53.40
75927;DHT22;64605;48.296;16.416;2023-02-28T05:16:36;3.80;53.40
75927;DHT22;64605;48.296;16.416;2023-02-28T05:19:02;3.70;53.60
75927;DHT22;64605;48.296;16.416;2023-02-28T05:21:39;3.60;53.50
75927;DHT22;64605;48.296;16.416;2023-02-28T05:24:08;3.50;53.70
75927;DHT22;64605;48.296;16.416;2023-02-28T05:26:36;3.40;53.70
75927;DHT22;64605;48.296;16.416;2023-02-28T05:29:02;3.30;54.10
75927;DHT22;64605;48.296;16.416;2023-02-28T05:31:27;3.20;54.30
75927;DHT22;64605;48.296;16.416;2023-02-28T05:33:53;3.20;54.60
75927;DHT22;64605;48.296;16.416;2023-02-28T05:36:19;3.10;54.80
75927;DHT22;64605;48.296;16.416;2023-02-28T05:38:49;3.10;55.00
75927;DHT22;64605;48.296;16.416;2023-02-28T05:41:15;3.00;54.80
75927;DHT22;64605;48.296;16.416;2023-02-28T05:43:41;3.00;55.30
75927;DHT22;64605;48.296;16.416;2023-02-28T05:46:08;3.00;55.60
75927;DHT22;64605;48.296;16.416;2023-02-28T05:48:36;2.90;55.40
75927;DHT22;64605;48.296;16.416;2023-02-28T05:51:03;2.90;55.50
75927;DHT22;64605;48.296;16.416;2023-02-28T05:53:29;2.90;55.60
75927;DHT22;64605;48.296;16.416;2023-02-28T05:55:55;2.90;55.70
75927;DHT22;64605;48.296;16.416;2023-02-28T05:58:21;2.90;55.70
75927;DHT22;64605;48.296;16.416;2023-02-28T06:00:47;2.90;55.60
75927;DHT22;64605;48.296;16.416;2023-02-28T06:03:12;2.90;55.80
75927;DHT22;64605;48.296;16.416;2023-02-28T06:05:38;3.00;55.70
75927;DHT22;64605;48.296;16.416;2023-02-28T06:08:04;3.10;55.90
75927;DHT22;64605;48.296;16.416;2023-02-28T06:10:35;3.10;55.90
75927;DHT22;64605;48.296;16.416;2023-02-28T06:13:02;3.20;55.70
75927;DHT22;64605;48.296;16.416;2023-02-28T06:15:28;3.30;55.70
75927;DHT22;64605;48.296;16.416;2023-02-28T06:17:54;3.40;55.60
75927;DHT22;64605;48.296;16.416;2023-02-28T06:20:22;3.60;55.50
75927;DHT22;64605;48.296;16.416;2023-02-28T06:22:49;3.70;55.20
75927;DHT22;64605;48.296;16.416;2023-02-28T06:25:16;3.90;54.90
75927;DHT22;64605;48.296;16.416;2023-02-28T06:27:42;4.00;54.70
75927;DHT22;64605;48.296;16.416;2023-02-28T06:30:09;4.10;54.30
75927;DHT22;64605;48.296;16.416;2023-02-28T06:32:35;4.30;54.30
75927;DHT22;64605;48.296;16.416;2023-02-28T06:35:01;4.40;54.00
75927;DHT22;64605;48.296;16.416;2023-02-28T06:37:27;4.50;53.30
75927;DHT22;64605;48.296;16.416;2023-02-28T06:39:54;4.50;54.00
75927;DHT22;64605;48.296;16.416;2023-02-28T06:42:22;4.60;53.10
75927;DHT22;64605;48.296;16.416;2023-02-28T06:44:50;4.70;52.60
75927;DHT22;64605;48.296;16.416;2023-02-28T06:47:16;4.70;52.50
75927;DHT22;64605;48.296;16.416;2023-02-28T06:49:41;4.80;52.20
75927;DHT22;64605;48.296;16.416;2023-02-28T06:52:07;4.90;51.90
75927;DHT22;64605;48.296;16.416;2023-02-28T06:54:36;4.90;51.30
75927;DHT22;64605;48.296;16.416;2023-02-28T06:57:02;4.90;51.00
75927;DHT22;64605;48.296;16.416;2023-02-28T06:59:28;4.90;51.60
75927;DHT22;64605;48.296;16.416;2023-02-28T07:01:53;5.00;51.20
75927;DHT22;64605;48.296;16.416;2023-02-28T07:04:20;5.10;51.10
75927;DHT22;64605;48.296;16.416;2023-02-28T07:06:46;5.20;50.70
75927;DHT22;64605;48.296;16.416;2023-02-28T07:09:12;5.40;50.40
75927;DHT22;64605;48.296;16.416;2023-02-28T07:11:39;5.50;49.70
75927;DHT22;64605;48.296;16.416;2023-02-28T07:14:06;5.60;49.70
75927;DHT22;64605;48.296;16.416;2023-02-28T07:16:32;5.70;49.20
75927;DHT22;64605;48.296;16.416;2023-02-28T07:18:58;5.70;48.70
75927;DHT22;64605;48.296;16.416;2023-02-28T07:21:24;5.70;49.00
75927;DHT22;64605;48.296;16.416;2023-02-28T07:23:50;5.90;49.20
75927;DHT22;64605;48.296;16.416;2023-02-28T07:26:18;6.10;49.40
75927;DHT22;64605;48.296;16.416;2023-02-28T07:28:44;6.30;48.60
75927;DHT22;64605;48.296;16.416;2023-02-28T07:31:11;6.50;48.40
75927;DHT22;64605;48.296;16.416;2023-02-28T07:33:39;6.70;48.10
75927;DHT22;64605;48.296;16.416;2023-02-28T07:36:11;6.90;47.70
75927;DHT22;64605;48.296;16.416;2023-02-28T07:38:41;7.20;47.40
75927;DHT22;64605;48.296;16.416;2023-02-28T07:41:07;7.40;45.90
75927;DHT22;64605;48.296;16.416;2023-02-28T07:43:34;7.30;45.30
75927;DHT22;64605;48.296;16.416;2023-02-28T07:46:08;7.40;45.60
75927;DHT22;64605;48.296;16.416;2023-02-28T07:48:33;7.50;44.70
75927;DHT22;64605;48.296;16.416;2023-02-28T07:51:00;7.60;44.90
75927;DHT22;64605;48.296;16.416;2023-02-28T07:53:27;7.70;44.70
75927;DHT22;64605;48.296;16.416;2023-02-28T07:56:00;7.70;44.00
75927;DHT22;64605;48.296;16.416;2023-02-28T07:58:26;7.70;44.50
75927;DHT22;64605;48.296;16.416;2023-02-28T08:00:52;7.80;44.30
75927;DHT22;64605;48.296;16.416;2023-02-28T08:03:19;7.90;44.00
75927;DHT22;64605;48.296;16.416;2023-02-28T08:05:45;8.10;43.50
75927;DHT22;64605;48.296;16.416;2023-02-28T08:08:11;8.20;43.60
75927;DHT22;64605;48.296;16.416;2023-02-28T08:10:36;8.40;43.40
75927;DHT22;64605;48.296;16.416;2023-02-28T08:13:02;8.60;43.40
75927;DHT22;64605;48.296;16.416;2023-02-28T08:15:28;9.00;43.40
75927;DHT22;64605;48.296;16.416;2023-02-28T08:17:53;9.40;43.10
75927;DHT22;64605;48.296;16.416;2023-02-28T08:20:22;10.00;41.30
75927;DHT22;64605;48.296;16.416;2023-02-28T08:22:48;10.50;40.60
75927;DHT22;64605;48.296;16.416;2023-02-28T08:25:14;11.10;38.50
75927;DHT22;64605;48.296;16.416;2023-02-28T08:27:40;11.70;37.20
75927;DHT22;64605;48.296;16.416;2023-02-28T08:30:06;12.50;36.30
75927;DHT22;64605;48.296;16.416;2023-02-28T08:32:33;13.50;35.40
75927;DHT22;64605;48.296;16.416;2023-02-28T08:34:59;14.30;31.60
75927;DHT22;64605;48.296;16.416;2023-02-28T08:37:25;14.40;30.80
75927;DHT22;64605;48.296;16.416;2023-02-28T08:39:51;14.30;31.50
75927;DHT22;64605;48.296;16.416;2023-02-28T08:42:16;14.60;31.20
75927;DHT22;64605;48.296;16.416;2023-02-28T08:44:42;14.70;30.70
75927;DHT22;64605;48.296;16.416;2023-02-28T08:47:08;14.60;31.00
75927;DHT22;64605;48.296;16.416;2023-02-28T08:49:33;15.10;30.10
75927;DHT22;64605;48.296;16.416;2023-02-28T08:51:59;15.30;30.30
75927;DHT22;64605;48.296;16.416;2023-02-28T08:54:25;15.60;29.00
75927;DHT22;64605;48.296;16.416;2023-02-28T08:56:50;15.40;29.60
75927;DHT22;64605;48.296;16.416;2023-02-28T08:59:16;15.50;29.00
75927;DHT22;64605;48.296;16.416;2023-02-28T09:01:42;15.50;28.90
75927;DHT22;64605;48.296;16.416;2023-02-28T09:04:09;15.90;29.40
75927;DHT22;64605;48.296;16.416;2023-02-28T09:06:36;16.60;29.40
75927;DHT22;64605;48.296;16.416;2023-02-28T09:09:02;17.70;27.40
75927;DHT22;64605;48.296;16.416;2023-02-28T09:11:29;18.70;26.50
75927;DHT22;64605;48.296;16.416;2023-02-28T09:13:55;19.30;25.30
75927;DHT22;64605;48.296;16.416;2023-02-28T09:16:21;20.00;25.60
75927;DHT22;64605;48.296;16.416;2023-02-28T09:18:47;21.00;23.80
75927;DHT22;64605;48.296;16.416;2023-02-28T09:21:15;21.60;23.80
75927;DHT22;64605;48.296;16.416;2023-02-28T09:23:45;22.10;23.30
75927;DHT22;64605;48.296;16.416;2023-02-28T09:26:20;22.60;22.60
75927;DHT22;64605;48.296;16.416;2023-02-28T09:28:47;23.50;21.50
75927;DHT22;64605;48.296;16.416;2023-02-28T09:31:22;23.60;20.30
75927;DHT22;64605;48.296;16.416;2023-02-28T09:33:50;23.60;21.00
75927;DHT22;64605;48.296;16.416;2023-02-28T09:36:15;24.10;20.00
75927;DHT22;64605;48.296;16.416;2023-02-28T09:38:41;24.20;20.30
75927;DHT22;64605;48.296;16.416;2023-02-28T09:41:19;25.10;19.70
75927;DHT22;64605;48.296;16.416;2023-02-28T09:43:49;25.30;19.00
75927;DHT22;64605;48.296;16.416;2023-02-28T09:48:53;24.80;18.60
75927;DHT22;64605;48.296;16.416;2023-02-28T09:52:19;23.60;19.10
75927;DHT22;64605;48.296;16.416;2023-02-28T09:54:21;23.00;20.00
75927;DHT22;64605;48.296;16.416;2023-02-28T09:56:53;22.90;20.20
75927;DHT22;64605;48.296;16.416;2023-02-28T10:02:53;23.50;19.90
75927;DHT22;64605;48.296;16.416;2023-02-28T10:05:05;23.40;19.90
75927;DHT22;64605;48.296;16.416;2023-02-28T10:13:05;24.70;18.40
75927;DHT22;64605;48.296;16.416;2023-02-28T10:15:32;26.10;18.50
75927;DHT22;64605;48.296;16.416;2023-02-28T10:18:11;28.30;17.10
75927;DHT22;64605;48.296;16.416;2023-02-28T10:20:39;29.00;15.80
75927;DHT22;64605;48.296;16.416;2023-02-28T10:23:30;29.10;16.00
75927;DHT22;64605;48.296;16.416;2023-02-28T10:26:11;30.10;15.20
75927;DHT22;64605;48.296;16.416;2023-02-28T10:28:37;30.30;15.30
75927;DHT22;64605;48.296;16.416;2023-02-28T10:31:03;30.80;14.80
75927;DHT22;64605;48.296;16.416;2023-02-28T10:33:31;30.90;14.50
75927;DHT22;64605;48.296;16.416;2023-02-28T10:35:59;30.20;14.50
75927;DHT22;64605;48.296;16.416;2023-02-28T10:38:31;29.00;15.00
75927;DHT22;64605;48.296;16.416;2023-02-28T10:43:50;28.90;15.40
75927;DHT22;64605;48.296;16.416;2023-02-28T10:46:18;28.80;15.10
75927;DHT22;64605;48.296;16.416;2023-02-28T10:49:11;28.60;15.30
75927;DHT22;64605;48.296;16.416;2023-02-28T10:51:39;29.30;15.30
75927;DHT22;64605;48.296;16.416;2023-02-28T10:54:06;29.90;14.90
75927;DHT22;64605;48.296;16.416;2023-02-28T10:56:39;30.00;14.60
75927;DHT22;64605;48.296;16.416;2023-02-28T11:01:37;28.30;15.20
75927;DHT22;64605;48.296;16.416;2023-02-28T11:04:34;26.90;15.50
75927;DHT22;64605;48.296;16.416;2023-02-28T11:09:46;25.60;16.90
75927;DHT22;64605;48.296;16.416;2023-02-28T11:14:57;26.50;16.70
75927;DHT22;64605;48.296;16.416;2023-02-28T11:17:28;27.80;16.30
75927;DHT22;64605;48.296;16.416;2023-02-28T11:19:59;28.10;15.70
75927;DHT22;64605;48.296;16.416;2023-02-28T11:22:31;28.20;15.30
75927;DHT22;64605;48.296;16.416;2023-02-28T11:25:00;27.60;15.80
75927;DHT22;64605;48.296;16.416;2023-02-28T11:29:57;24.40;17.00
75927;DHT22;64605;48.296;16.416;2023-02-28T11:32:25;22.10;18.70
75927;DHT22;64605;48.296;16.416;2023-02-28T11:37:36;18.30;22.80
75927;DHT22;64605;48.296;16.416;2023-02-28T11:40:05;17.00;24.00
75927;DHT22;64605;48.296;16.416;2023-02-28T11:45:41;15.00;26.70
75927;DHT22;64605;48.296;16.416;2023-02-28T11:48:20;14.50;27.70
75927;DHT22;64605;48.296;16.416;2023-02-28T11:54:06;13.60;28.50
75927;DHT22;64605;48.296;16.416;2023-02-28T11:56:47;13.50;29.20
75927;DHT22;64605;48.296;16.416;2023-02-28T12:05:20;12.50;29.90
75927;DHT22;64605;48.296;16.416;2023-02-28T12:08:25;12.30;30.00
75927;DHT22;64605;48.296;16.416;2023-02-28T12:21:37;11.90;32.70
75927;DHT22;64605;48.296;16.416;2023-02-28T12:27:00;12.00;31.60
75927;DHT22;64605;48.296;16.416;2023-02-28T12:29:28;12.00;32.10
75927;DHT22;64605;48.296;16.416;2023-02-28T12:32:23;12.10;32.30
75927;DHT22;64605;48.296;16.416;2023-02-28T12:37:33;12.00;32.20
75927;DHT22;64605;48.296;16.416;2023-02-28T12:40:14;11.80;32.60
75927;DHT22;64605;48.296;16.416;2023-02-28T12:42:56;11.70;32.40
75927;DHT22;64605;48.296;16.416;2023-02-28T12:45:39;11.70;33.00
75927;DHT22;64605;48.296;16.416;2023-02-28T12:48:08;11.70;32.90
75927;DHT22;64605;48.296;16.416;2023-02-28T12:50:37;11.70;32.90
75927;DHT22;64605;48.296;16.416;2023-02-28T12:58:48;11.80;32.00
75927;DHT22;64605;48.296;16.416;2023-02-28T13:01:39;11.80;32.30
75927;DHT22;64605;48.296;16.416;2023-02-28T13:09:27;11.40;33.00
75927;DHT22;64605;48.296;16.416;2023-02-28T13:11:55;11.40;32.80
75927;DHT22;64605;48.296;16.416;2023-02-28T13:17:22;11.30;32.80
75927;DHT22;64605;48.296;16.416;2023-02-28T13:27:50;11.00;33.50
75927;DHT22;64605;48.296;16.416;2023-02-28T13:44:20;10.70;34.40
75927;DHT22;64605;48.296;16.416;2023-02-28T13:58:02;11.20;33.40
75927;DHT22;64605;48.296;16.416;2023-02-28T14:03:37;11.20;33.00
75927;DHT22;64605;48.296;16.416;2023-02-28T14:06:25;11.20;33.10
75927;DHT22;64605;48.296;16.416;2023-02-28T14:11:42;10.90;33.10
75927;DHT22;64605;48.296;16.416;2023-02-28T14:14:09;10.70;33.50
75927;DHT22;64605;48.296;16.416;2023-02-28T14:16:55;10.60;33.80
75927;DHT22;64605;48.296;16.416;2023-02-28T14:19:30;10.50;33.80
75927;DHT22;64605;48.296;16.416;2023-02-28T14:30:43;10.00;35.10
75927;DHT22;64605;48.296;16.416;2023-02-28T14:38:33;9.70;35.80
75927;DHT22;64605;48.296;16.416;2023-02-28T14:41:04;9.60;36.00
75927;DHT22;64605;48.296;16.416;2023-02-28T14:43:32;9.50;36.00
75927;DHT22;64605;48.296;16.416;2023-02-28T14:46:03;9.40;36.30
75927;DHT22;64605;48.296;16.416;2023-02-28T14:48:29;9.30;36.60
75927;DHT22;64605;48.296;16.416;2023-02-28T14:51:00;9.30;36.90
75927;DHT22;64605;48.296;16.416;2023-02-28T14:53:28;9.30;37.20
75927;DHT22;64605;48.296;16.416;2023-02-28T14:55:54;9.30;37.20
75927;DHT22;64605;48.296;16.416;2023-02-28T14:58:27;9.40;37.30
75927;DHT22;64605;48.296;16.416;2023-02-28T15:00:55;9.40;37.20
75927;DHT22;64605;48.296;16.416;2023-02-28T15:03:31;9.30;37.40
75927;DHT22;64605;48.296;16.416;2023-02-28T15:06:15;9.40;37.10
75927;DHT22;64605;48.296;16.416;2023-02-28T15:08:43;9.30;37.00
75927;DHT22;64605;48.296;16.416;2023-02-28T15:11:18;9.30;37.00
75927;DHT22;64605;48.296;16.416;2023-02-28T15:13:49;9.30;36.90
75927;DHT22;64605;48.296;16.416;2023-02-28T15:16:25;9.40;36.80
75927;DHT22;64605;48.296;16.416;2023-02-28T15:18:57;9.40;36.50
75927;DHT22;64605;48.296;16.416;2023-02-28T15:21:30;9.40;36.80
75927;DHT22;64605;48.296;16.416;2023-02-28T15:24:06;9.40;36.50
75927;DHT22;64605;48.296;16.416;2023-02-28T15:26:38;9.20;36.60
75927;DHT22;64605;48.296;16.416;2023-02-28T15:29:07;9.30;36.50
75927;DHT22;64605;48.296;16.416;2023-02-28T15:31:35;9.20;36.60
75927;DHT22;64605;48.296;16.416;2023-02-28T15:34:06;9.10;37.00
75927;DHT22;64605;48.296;16.416;2023-02-28T15:36:34;9.10;37.10
75927;DHT22;64605;48.296;16.416;2023-02-28T15:39:16;9.00;37.20
75927;DHT22;64605;48.296;16.416;2023-02-28T15:41:43;9.10;37.30
75927;DHT22;64605;48.296;16.416;2023-02-28T15:44:18;9.00;37.30
75927;DHT22;64605;48.296;16.416;2023-02-28T15:47:19;8.90;37.60
75927;DHT22;64605;48.296;16.416;2023-02-28T15:52:39;8.80;37.90
75927;DHT22;64605;48.296;16.416;2023-02-28T15:57:44;8.60;38.10
75927;DHT22;64605;48.296;16.416;2023-02-28T16:00:13;8.60;38.30
75927;DHT22;64605;48.296;16.416;2023-02-28T16:02:41;8.60;38.40
75927;DHT22;64605;48.296;16.416;2023-02-28T16:07:37;8.60;38.40
75927;DHT22;64605;48.296;16.416;2023-02-28T16:10:03;8.50;38.30
75927;DHT22;64605;48.296;16.416;2023-02-28T16:12:33;8.50;38.30
75927;DHT22;64605;48.296;16.416;2023-02-28T16:15:01;8.40;38.30
75927;DHT22;64605;48.296;16.416;2023-02-28T16:17:38;8.40;38.50
75927;DHT22;64605;48.296;16.416;2023-02-28T16:22:43;8.30;39.10
75927;DHT22;64605;48.296;16.416;2023-02-28T16:25:17;8.30;39.00
75927;DHT22;64605;48.296;16.416;2023-02-28T16:27:45;8.20;39.10
75927;DHT22;64605;48.296;16.416;2023-02-28T16:30:23;8.20;39.20
75927;DHT22;64605;48.296;16.416;2023-02-28T16:32:50;8.10;39.30
75927;DHT22;64605;48.296;16.416;2023-02-28T16:35:18;8.10;39.90
75927;DHT22;64605;48.296;16.416;2023-02-28T16:37:43;8.10;40.40
75927;DHT22;64605;48.296;16.416;2023-02-28T16:40:21;8.00;41.40
75927;DHT22;64605;48.296;16.416;2023-02-28T16:42:48;7.90;40.60
75927;DHT22;64605;48.296;16.416;2023-02-28T16:45:17;7.90;40.80
75927;DHT22;64605;48.296;16.416;2023-02-28T16:47:44;7.80;40.90
75927;DHT22;64605;48.296;16.416;2023-02-28T16:50:30;7.80;41.50
75927;DHT22;64605;48.296;16.416;2023-02-28T16:52:56;7.80;41.70
75927;DHT22;64605;48.296;16.416;2023-02-28T16:55:25;7.80;41.50
75927;DHT22;64605;48.296;16.416;2023-02-28T16:57:56;7.80;41.90
75927;DHT22;64605;48.296;16.416;2023-02-28T17:00:22;7.80;41.60
75927;DHT22;64605;48.296;16.416;2023-02-28T17:02:48;7.80;41.80
75927;DHT22;64605;48.296;16.416;2023-02-28T17:05:14;7.80;41.90
75927;DHT22;64605;48.296;16.416;2023-02-28T17:07:41;7.80;42.30
75927;DHT22;64605;48.296;16.416;2023-02-28T17:12:42;7.90;41.70
75927;DHT22;64605;48.296;16.416;2023-02-28T17:15:10;7.90;42.20
75927;DHT22;64605;48.296;16.416;2023-02-28T17:17:35;8.00;42.50
75927;DHT22;64605;48.296;16.416;2023-02-28T17:20:02;7.90;42.80
75927;DHT22;64605;48.296;16.416;2023-02-28T17:22:28;8.00;42.80
75927;DHT22;64605;48.296;16.416;2023-02-28T17:24:53;8.00;43.10
75927;DHT22;64605;48.296;16.416;2023-02-28T17:27:23;8.00;43.10
75927;DHT22;64605;48.296;16.416;2023-02-28T17:29:48;8.00;43.20
75927;DHT22;64605;48.296;16.416;2023-02-28T17:32:14;7.90;43.20
75927;DHT22;64605;48.296;16.416;2023-02-28T17:34:39;7.90;43.50
75927;DHT22;64605;48.296;16.416;2023-02-28T17:37:05;7.90;43.60
75927;DHT22;64605;48.296;16.416;2023-02-28T17:39:31;7.80;43.70
75927;DHT22;64605;48.296;16.416;2023-02-28T17:41:57;7.70;43.30
75927;DHT22;64605;48.296;16.416;2023-02-28T17:44:23;7.70;43.60
75927;DHT22;64605;48.296;16.416;2023-02-28T17:46:49;7.70;43.80
75927;DHT22;64605;48.296;16.416;2023-02-28T17:49:18;7.60;43.80
75927;DHT22;64605;48.296;16.416;2023-02-28T17:51:44;7.60;44.10
75927;DHT22;64605;48.296;16.416;2023-02-28T17:54:10;7.50;44.30
75927;DHT22;64605;48.296;16.416;2023-02-28T17:56:35;7.40;44.40
75927;DHT22;64605;48.296;16.416;2023-02-28T17:59:02;7.30;44.70
75927;DHT22;64605;48.296;16.416;2023-02-28T18:01:27;7.20;44.80
75927;DHT22;64605;48.296;16.416;2023-02-28T18:03:54;7.10;45.10
75927;DHT22;64605;48.296;16.416;2023-02-28T18:06:23;7.00;45.30
75927;DHT22;64605;48.296;16.416;2023-02-28T18:08:50;6.90;45.60
75927;DHT22;64605;48.296;16.416;2023-02-28T18:11:19;6.70;45.60
75927;DHT22;64605;48.296;16.416;2023-02-28T18:13:47;6.70;45.80
75927;DHT22;64605;48.296;16.416;2023-02-28T18:16:13;6.60;45.90
75927;DHT22;64605;48.296;16.416;2023-02-28T18:18:38;6.50;46.10
75927;DHT22;64605;48.296;16.416;2023-02-28T18:21:05;6.50;46.30
75927;DHT22;64605;48.296;16.416;2023-02-28T18:23:31;6.40;46.40
75927;DHT22;64605;48.296;16.416;2023-02-28T18:25:56;6.30;46.50
75927;DHT22;64605;48.296;16.416;2023-02-28T18:28:23;6.30;46.80